CheckWX is a tool to help pilots better visualize weather data.  It is not intended as a substitute for an official pre-flight weather briefing.

21:33:42 UTC

VTUV METAR
Roi Et Airport
Thailand
Current

8 hours ago

VTUV 041400Z 18002KT 9999 FEW030 29/26 Q1008 NOSIG
Observed
Jun-4 @ 14:00 UTC
Wind
  • 180° at 2 KTS
Visibility
10,000+ meters
Flight Rules
VFR
Cloud Levels
  • Few at 3,000' AGL
Temperature
29°C / 84°F
Dewpoint
26°C / 79°F
Humidity
84%
Altimeter
29.76" Hg
Pressure
1007.92 hPa
Previous

9 hours ago

VTUV 041300Z 00000KT 9999 FEW030 29/27 Q1007 NOSIG
Observed
Jun-4 @ 13:00 UTC
Visibility
10,000+ meters
Flight Rules
VFR
Cloud Levels
  • Few at 3,000' AGL
Temperature
29°C / 84°F
Dewpoint
27°C / 81°F
Humidity
89%
Altimeter
29.73" Hg
Pressure
1006.92 hPa
Previous

10 hours ago

VTUV 041200Z 13003KT 9999 FEW030 29/26 Q1006 NOSIG
Observed
Jun-4 @ 12:00 UTC
Wind
  • 130° at 3 KTS
Visibility
10,000+ meters
Flight Rules
VFR
Cloud Levels
  • Few at 3,000' AGL
Temperature
29°C / 84°F
Dewpoint
26°C / 79°F
Humidity
84%
Altimeter
29.7" Hg
Pressure
1005.92 hPa